createdAt,value
2018-08-24T00:00:42.566Z,6.60
2018-08-24T00:03:11.578Z,6.50
2018-08-24T00:05:40.466Z,7.10
2018-08-24T00:08:09.365Z,7.00
2018-08-24T00:10:38.290Z,7.20
2018-08-24T00:13:07.586Z,7.03
2018-08-24T00:15:36.572Z,7.10
2018-08-24T00:18:05.513Z,7.30
2018-08-24T00:20:34.405Z,6.60
2018-08-24T00:23:03.301Z,7.70
2018-08-24T00:25:32.273Z,6.40
2018-08-24T00:28:01.162Z,6.47
2018-08-24T00:30:30.049Z,6.80
2018-08-24T00:32:58.941Z,6.43
2018-08-24T00:35:28.019Z,5.90
2018-08-24T00:37:56.902Z,7.07
2018-08-24T00:40:25.781Z,6.93
2018-08-24T00:42:54.690Z,6.10
2018-08-24T00:45:23.599Z,6.30
2018-08-24T00:47:52.512Z,7.95
2018-08-24T00:50:21.407Z,6.93
2018-08-24T00:52:50.674Z,6.67
2018-08-24T00:55:19.581Z,6.50
2018-08-24T00:57:48.538Z,6.17
2018-08-24T01:00:17.427Z,7.17
2018-08-24T01:02:46.289Z,6.80
2018-08-24T01:05:15.197Z,6.77
2018-08-24T01:07:49.327Z,5.00
2018-08-24T01:10:23.393Z,6.80
2018-08-24T01:12:52.409Z,6.30
2018-08-24T01:15:21.412Z,6.40
2018-08-24T01:17:55.677Z,6.70
2018-08-24T01:20:30.510Z,6.20
2018-08-24T01:22:59.397Z,6.90
2018-08-24T01:25:29.285Z,5.87
2018-08-24T01:27:58.270Z,6.60
2018-08-24T01:30:27.170Z,6.20
2018-08-24T01:32:56.094Z,5.70
2018-08-24T01:35:24.969Z,6.13
2018-08-24T01:37:53.901Z,6.07
2018-08-24T01:40:22.845Z,5.47
2018-08-24T01:42:51.794Z,6.43
2018-08-24T01:45:20.714Z,5.60
2018-08-24T01:47:49.642Z,5.58
2018-08-24T01:50:18.753Z,5.80
2018-08-24T01:52:47.674Z,5.00
2018-08-24T01:55:16.653Z,5.07
2018-08-24T01:57:45.549Z,5.97
2018-08-24T02:00:15.326Z,5.00
2018-08-24T02:02:45.838Z,5.20
2018-08-24T02:05:14.774Z,4.90
2018-08-24T02:07:43.674Z,5.35
2018-08-24T02:10:18.022Z,4.92
2018-08-24T02:12:52.274Z,5.05
2018-08-24T02:15:21.170Z,5.72
2018-08-24T02:17:55.291Z,4.80
2018-08-24T02:20:29.591Z,5.45
2018-08-24T02:23:00.194Z,5.73
2018-08-24T02:25:29.070Z,6.17
2018-08-24T02:27:58.081Z,5.80
2018-08-24T02:30:27.011Z,5.30
2018-08-24T02:32:55.941Z,5.00
2018-08-24T02:35:24.866Z,5.30
2018-08-24T02:37:53.790Z,5.73
2018-08-24T02:40:22.851Z,5.20
2018-08-24T02:42:51.810Z,5.20
2018-08-24T02:45:20.714Z,5.10
2018-08-24T02:47:49.957Z,5.27
2018-08-24T02:50:18.846Z,5.37
2018-08-24T02:52:47.849Z,5.17
2018-08-24T02:55:16.913Z,5.50
2018-08-24T02:57:45.882Z,5.20
2018-08-24T03:00:16.770Z,5.77
2018-08-24T03:02:45.802Z,4.50
2018-08-24T03:05:14.842Z,5.07
2018-08-24T03:07:43.709Z,5.58
2018-08-24T03:10:12.617Z,4.70
2018-08-24T03:12:41.711Z,6.27
2018-08-24T03:15:10.808Z,5.10
2018-08-24T03:17:45.046Z,5.78
2018-08-24T03:20:13.931Z,4.93
2018-08-24T03:22:42.809Z,4.97
2018-08-24T03:25:11.696Z,5.22
2018-08-24T03:27:40.647Z,5.33
2018-08-24T03:30:09.538Z,5.33
2018-08-24T03:32:38.438Z,4.80
2018-08-24T03:35:07.366Z,4.95
2018-08-24T03:37:36.265Z,4.90
2018-08-24T03:40:05.754Z,4.90
2018-08-24T03:42:34.649Z,5.22
2018-08-24T03:45:03.639Z,5.78
2018-08-24T03:47:32.530Z,4.90
2018-08-24T03:50:01.430Z,5.03
2018-08-24T03:52:30.298Z,4.67
2018-08-24T03:54:59.218Z,5.28
2018-08-24T03:57:28.097Z,4.03
2018-08-24T03:59:57.038Z,6.00
2018-08-24T04:02:25.938Z,5.53
2018-08-24T04:04:54.982Z,4.90
2018-08-24T04:07:23.882Z,5.80
2018-08-24T04:09:52.885Z,5.83
2018-08-24T04:12:21.805Z,5.05
2018-08-24T04:14:50.755Z,5.40
2018-08-24T04:17:25.405Z,5.20
2018-08-24T04:19:54.374Z,6.30
2018-08-24T04:22:23.265Z,5.80
2018-08-24T04:24:52.158Z,5.75
2018-08-24T04:27:21.704Z,5.83
2018-08-24T04:29:52.709Z,5.78
2018-08-24T04:32:21.694Z,5.17
2018-08-24T04:34:50.761Z,5.42
2018-08-24T04:37:19.860Z,6.00
2018-08-24T04:39:48.774Z,5.63
2018-08-24T04:42:17.819Z,5.20
2018-08-24T04:44:46.811Z,6.10
2018-08-24T04:47:15.708Z,5.93
2018-08-24T04:49:44.613Z,4.70
2018-08-24T04:52:13.691Z,5.60
2018-08-24T04:54:42.594Z,6.20
2018-08-24T04:57:11.498Z,5.72
2018-08-24T04:59:40.435Z,6.10
2018-08-24T05:02:09.330Z,6.12
2018-08-24T05:04:38.217Z,6.35
2018-08-24T05:07:07.143Z,5.92
2018-08-24T05:09:36.101Z,6.30
2018-08-24T05:12:05.278Z,6.63
2018-08-24T05:14:34.170Z,5.42
2018-08-24T05:17:03.528Z,7.37
2018-08-24T05:19:32.467Z,6.12
2018-08-24T05:22:01.504Z,6.12
2018-08-24T05:24:30.464Z,7.42
2018-08-24T05:26:59.377Z,6.67
2018-08-24T05:29:28.298Z,7.20
2018-08-24T05:31:57.278Z,6.90
2018-08-24T05:34:26.241Z,6.40
2018-08-24T05:36:55.426Z,6.40
2018-08-24T05:39:24.377Z,7.00
2018-08-24T05:41:53.322Z,7.10
2018-08-24T05:44:22.232Z,6.80
2018-08-24T05:46:51.293Z,7.10
2018-08-24T05:49:20.319Z,7.60
2018-08-24T05:51:49.307Z,6.85
2018-08-24T05:54:18.254Z,7.80
2018-08-24T05:56:47.259Z,8.00
2018-08-24T05:59:16.273Z,7.27
2018-08-24T06:01:45.265Z,7.40
2018-08-24T06:04:14.246Z,6.60
2018-08-24T06:06:43.157Z,7.00
2018-08-24T06:09:13.860Z,5.80
2018-08-24T06:11:43.281Z,6.47
2018-08-24T06:14:13.397Z,6.27
2018-08-24T06:16:47.736Z,6.37
2018-08-24T06:19:16.538Z,6.03
2018-08-24T06:21:45.450Z,6.25
2018-08-24T06:24:14.425Z,5.92
2018-08-24T06:26:43.458Z,6.10
2018-08-24T06:29:12.331Z,6.17
2018-08-24T06:31:47.934Z,5.77
2018-08-24T06:34:17.219Z,5.17
2018-08-24T06:36:46.195Z,4.73
2018-08-24T06:39:15.094Z,4.90
2018-08-24T06:41:44.624Z,4.93
2018-08-24T06:44:13.456Z,4.35
2018-08-24T06:46:42.431Z,5.30
2018-08-24T06:49:11.342Z,4.80
2018-08-24T06:51:40.358Z,5.33
2018-08-24T06:54:09.458Z,4.83
2018-08-24T06:56:38.353Z,5.23
2018-08-24T06:59:07.239Z,6.43
2018-08-24T07:01:36.231Z,5.55
2018-08-24T07:04:05.274Z,4.53
2018-08-24T07:06:34.170Z,5.43
2018-08-24T07:09:04.602Z,5.23
2018-08-24T07:11:33.514Z,5.63
2018-08-24T07:14:02.429Z,4.70
2018-08-24T07:16:31.438Z,5.50
2018-08-24T07:19:00.323Z,4.83
2018-08-24T07:21:29.532Z,4.65
2018-08-24T07:23:58.441Z,5.30
2018-08-24T07:26:27.382Z,5.90
2018-08-24T07:28:56.270Z,5.60
2018-08-24T07:31:25.169Z,4.70
2018-08-24T07:33:54.122Z,5.03
2018-08-24T07:36:23.186Z,5.70
2018-08-24T07:38:52.087Z,5.73
2018-08-24T07:41:21.633Z,5.40
2018-08-24T07:43:50.504Z,5.43
2018-08-24T07:46:19.405Z,6.50
2018-08-24T07:48:48.295Z,6.37
2018-08-24T07:51:17.228Z,6.60
2018-08-24T07:53:46.234Z,6.03
2018-08-24T07:56:16.273Z,6.53
2018-08-24T07:58:45.283Z,6.23
2018-08-24T08:01:14.270Z,6.97
2018-08-24T08:03:43.249Z,5.80
2018-08-24T08:06:12.183Z,5.97
2018-08-24T08:08:41.175Z,6.80
2018-08-24T08:11:10.084Z,5.83
2018-08-24T08:13:38.966Z,6.57
2018-08-24T08:16:07.928Z,6.10
2018-08-24T08:18:36.839Z,5.93
2018-08-24T08:21:06.061Z,6.13
2018-08-24T08:23:34.941Z,5.50
2018-08-24T08:26:03.877Z,4.83
2018-08-24T08:28:33.438Z,5.40
2018-08-24T08:31:02.342Z,5.53
2018-08-24T08:33:31.241Z,4.80
2018-08-24T08:36:00.182Z,4.33
2018-08-24T08:38:29.096Z,4.33
2018-08-24T08:40:57.985Z,3.60
2018-08-24T08:43:27.265Z,4.33
2018-08-24T08:45:56.308Z,4.57
2018-08-24T08:48:25.224Z,4.07
2018-08-24T08:50:55.254Z,4.27
2018-08-24T08:53:24.206Z,4.60
2018-08-24T08:55:53.110Z,4.30
2018-08-24T08:58:22.214Z,3.50
2018-08-24T09:00:51.252Z,4.60
2018-08-24T09:03:20.191Z,3.93
2018-08-24T09:05:49.122Z,4.73
2018-08-24T09:08:18.025Z,4.47
2018-08-24T09:10:46.926Z,4.33
2018-08-24T09:13:15.918Z,3.70
2018-08-24T09:15:44.863Z,3.43
2018-08-24T09:18:19.227Z,3.80
2018-08-24T09:20:53.450Z,4.23
2018-08-24T09:23:28.798Z,4.23
2018-08-24T09:26:03.054Z,4.77
2018-08-24T09:28:35.709Z,4.57
2018-08-24T09:31:39.690Z,4.37
2018-08-24T09:34:09.119Z,4.30
2018-08-24T09:36:38.026Z,4.87
2018-08-24T09:39:09.626Z,5.17
2018-08-24T09:41:39.335Z,4.47
2018-08-24T09:44:08.230Z,4.33
2018-08-24T09:46:43.570Z,3.33
2018-08-24T09:49:17.924Z,5.40
2018-08-24T09:51:47.066Z,5.50
2018-08-24T09:54:16.654Z,3.67
2018-08-24T09:56:45.760Z,2.50
2018-08-24T09:59:14.906Z,3.10
2018-08-24T10:01:49.144Z,3.03
2018-08-24T10:04:23.422Z,2.73
2018-08-24T10:08:01.396Z,2.77
2018-08-24T10:10:30.398Z,2.00
2018-08-24T10:12:59.314Z,2.00
2018-08-24T10:15:29.314Z,1.90
2018-08-24T10:17:58.654Z,2.07
2018-08-24T10:20:28.691Z,1.80
2018-08-24T10:22:58.642Z,1.70
2018-08-24T10:25:27.490Z,2.20
2018-08-24T10:27:56.393Z,2.00
2018-08-24T10:30:25.354Z,2.37
2018-08-24T10:32:54.312Z,2.20
2018-08-24T10:35:23.266Z,2.20
2018-08-24T10:37:52.318Z,2.10
2018-08-24T10:40:24.668Z,2.20
2018-08-24T10:42:53.742Z,2.10
2018-08-24T10:45:23.085Z,2.17
2018-08-24T10:47:52.027Z,2.73
2018-08-24T10:50:21.095Z,2.30
2018-08-24T10:52:56.023Z,2.53
2018-08-24T10:55:25.426Z,2.23
2018-08-24T10:57:54.417Z,2.40
2018-08-24T11:00:23.481Z,2.10
2018-08-24T11:02:52.439Z,2.37
2018-08-24T11:05:21.393Z,2.60
2018-08-24T11:07:50.422Z,2.23
2018-08-24T11:10:19.259Z,1.90
2018-08-24T11:12:48.505Z,2.53
2018-08-24T11:15:17.962Z,2.80
2018-08-24T11:17:52.621Z,2.87
2018-08-24T11:20:22.211Z,3.07
2018-08-24T11:22:51.544Z,3.03
2018-08-24T11:25:20.623Z,2.50
2018-08-24T11:27:50.681Z,3.23
2018-08-24T11:30:20.666Z,2.70
2018-08-24T11:32:50.054Z,3.20
2018-08-24T11:35:19.034Z,3.03
2018-08-24T11:37:48.285Z,2.70
2018-08-24T11:40:17.598Z,2.80
2018-08-24T11:42:47.519Z,2.97
2018-08-24T11:45:16.536Z,2.70
2018-08-24T11:47:45.544Z,3.13
2018-08-24T11:50:15.190Z,3.47
2018-08-24T11:52:44.262Z,2.73
2018-08-24T11:55:13.435Z,2.60
2018-08-24T11:57:42.451Z,2.43
2018-08-24T12:00:11.455Z,2.27
2018-08-24T12:02:40.348Z,2.37
2018-08-24T12:05:09.261Z,2.10
2018-08-24T12:07:38.251Z,2.33
2018-08-24T12:10:07.182Z,2.20
2018-08-24T12:12:36.160Z,2.23
2018-08-24T12:15:06.683Z,1.80
2018-08-24T12:17:37.122Z,2.00
2018-08-24T12:20:07.317Z,2.27
2018-08-24T12:22:36.226Z,1.87
2018-08-24T12:25:05.676Z,2.10
2018-08-24T12:27:34.727Z,2.30
2018-08-24T12:30:03.770Z,2.33
2018-08-24T12:32:32.833Z,1.70
2018-08-24T12:35:01.747Z,2.27
2018-08-24T12:37:34.842Z,2.00
2018-08-24T12:40:03.998Z,1.83
2018-08-24T12:42:32.902Z,2.03
2018-08-24T12:45:01.867Z,2.17
2018-08-24T12:47:30.766Z,2.40
2018-08-24T12:49:59.661Z,2.40
2018-08-24T12:52:28.550Z,2.10
2018-08-24T12:54:57.450Z,2.27
2018-08-24T12:57:28.665Z,2.50
2018-08-24T12:59:58.515Z,2.10
2018-08-24T13:02:27.366Z,2.53
2018-08-24T13:04:56.533Z,2.33
2018-08-24T13:07:25.710Z,1.93
2018-08-24T13:09:54.734Z,2.30
2018-08-24T13:12:23.639Z,1.70
2018-08-24T13:14:52.561Z,1.90
2018-08-24T13:17:21.668Z,2.00
2018-08-24T13:19:51.662Z,2.40
2018-08-24T13:22:20.670Z,1.83
2018-08-24T13:24:49.575Z,2.20
2018-08-24T13:27:18.612Z,2.13
2018-08-24T13:29:51.472Z,2.10
2018-08-24T13:32:20.555Z,2.47
2018-08-24T13:34:49.454Z,2.03
2018-08-24T13:37:18.388Z,2.20
2018-08-24T13:39:47.562Z,2.10
2018-08-24T13:42:16.479Z,2.00
2018-08-24T13:44:45.498Z,2.30
2018-08-24T13:47:16.040Z,1.80
2018-08-24T13:49:44.911Z,2.20
2018-08-24T13:52:13.883Z,2.40
2018-08-24T13:54:42.847Z,2.30
2018-08-24T13:57:11.951Z,2.40
2018-08-24T13:59:41.078Z,2.47
2018-08-24T14:02:09.877Z,2.22
2018-08-24T14:04:38.771Z,2.47
2018-08-24T14:07:07.790Z,2.33
2018-08-24T14:09:36.725Z,1.90
2018-08-24T14:12:05.762Z,2.67
2018-08-24T14:14:34.942Z,2.50
2018-08-24T14:17:04.006Z,1.87
2018-08-24T14:19:32.962Z,2.05
2018-08-24T14:22:01.875Z,1.72
2018-08-24T14:24:30.795Z,2.20
2018-08-24T14:26:59.717Z,2.65
2018-08-24T14:29:29.217Z,2.45
2018-08-24T14:31:58.205Z,2.75
2018-08-24T14:34:27.238Z,2.33
2018-08-24T14:36:56.218Z,2.70
2018-08-24T14:39:26.335Z,3.80
2018-08-24T14:41:55.342Z,2.40
2018-08-24T14:44:24.518Z,2.47
2018-08-24T14:46:53.527Z,2.40
2018-08-24T14:49:22.594Z,2.30
2018-08-24T14:51:51.592Z,2.30
2018-08-24T14:54:20.548Z,2.73
2018-08-24T14:56:49.481Z,2.50
2018-08-24T14:59:18.431Z,2.10
2018-08-24T15:01:47.477Z,1.53
2018-08-24T15:04:16.486Z,2.12
2018-08-24T15:06:45.954Z,1.95
2018-08-24T15:09:15.258Z,2.45
2018-08-24T15:11:44.416Z,2.20
2018-08-24T15:14:13.481Z,1.90
2018-08-24T15:16:42.544Z,2.05
2018-08-24T15:19:13.086Z,1.98
2018-08-24T15:21:42.093Z,2.35
2018-08-24T15:24:11.139Z,2.35
2018-08-24T15:26:40.226Z,2.37
2018-08-24T15:29:09.118Z,2.58
2018-08-24T15:31:38.007Z,2.37
2018-08-24T15:34:06.994Z,3.05
2018-08-24T15:36:36.030Z,3.40
2018-08-24T15:39:08.375Z,3.25
2018-08-24T15:41:37.306Z,2.80
2018-08-24T15:44:06.526Z,2.90
2018-08-24T15:46:35.452Z,3.42
2018-08-24T15:49:05.052Z,3.02
2018-08-24T15:51:33.962Z,3.62
2018-08-24T15:54:02.950Z,3.25
2018-08-24T15:56:31.891Z,3.80
2018-08-24T15:59:00.790Z,2.98
2018-08-24T16:01:29.699Z,4.03
2018-08-24T16:03:58.640Z,3.75
2018-08-24T16:06:27.563Z,3.80
2018-08-24T16:08:56.475Z,3.37
2018-08-24T16:11:25.586Z,3.52
2018-08-24T16:13:54.551Z,3.95
2018-08-24T16:16:23.533Z,4.05
2018-08-24T16:18:52.441Z,4.45
2018-08-24T16:21:21.630Z,3.65
2018-08-24T16:23:50.626Z,3.10
2018-08-24T16:26:23.851Z,3.80
2018-08-24T16:28:53.361Z,4.07
2018-08-24T16:31:22.467Z,3.37
2018-08-24T16:33:52.115Z,3.90
2018-08-24T16:36:21.049Z,3.87
2018-08-24T16:38:50.180Z,3.50
2018-08-24T16:41:19.122Z,4.20
2018-08-24T16:43:48.197Z,3.10
2018-08-24T16:46:17.094Z,4.58
2018-08-24T16:48:46.118Z,4.85
2018-08-24T16:51:15.035Z,4.25
2018-08-24T16:53:43.911Z,4.05
2018-08-24T16:56:12.802Z,4.40
2018-08-24T16:58:41.671Z,4.10
2018-08-24T17:01:10.658Z,4.70
2018-08-24T17:03:39.592Z,3.35
2018-08-24T17:06:08.637Z,4.65
2018-08-24T17:08:37.510Z,4.25
2018-08-24T17:11:06.553Z,4.85
2018-08-24T17:13:35.580Z,4.40
2018-08-24T17:16:04.568Z,4.62
2018-08-24T17:18:33.502Z,3.90
2018-08-24T17:21:02.511Z,4.70
2018-08-24T17:23:31.403Z,3.75
2018-08-24T17:26:00.290Z,4.15
2018-08-24T17:28:29.263Z,4.47
2018-08-24T17:30:58.527Z,4.85
2018-08-24T17:33:27.434Z,4.33
2018-08-24T17:35:56.380Z,4.20
2018-08-24T17:38:25.294Z,5.10
2018-08-24T17:40:56.286Z,4.60
2018-08-24T17:43:25.271Z,4.85
2018-08-24T17:45:54.195Z,4.55
2018-08-24T17:48:23.210Z,4.78
2018-08-24T17:50:52.342Z,4.85
2018-08-24T17:53:21.251Z,4.95
2018-08-24T17:55:50.186Z,4.15
2018-08-24T17:58:19.180Z,4.35
2018-08-24T18:00:48.199Z,3.87
2018-08-24T18:03:17.119Z,4.85
2018-08-24T18:05:45.977Z,4.75
2018-08-24T18:08:14.924Z,4.33
2018-08-24T18:10:43.762Z,4.65
2018-08-24T18:13:12.703Z,4.00
2018-08-24T18:15:41.588Z,4.15
2018-08-24T18:18:10.514Z,5.15
2018-08-24T18:20:39.405Z,4.12
2018-08-24T18:23:08.363Z,4.87
2018-08-24T18:25:37.274Z,4.25
2018-08-24T18:28:06.343Z,3.67
2018-08-24T18:30:35.383Z,4.80
2018-08-24T18:33:04.302Z,4.70
2018-08-24T18:35:33.295Z,4.50
2018-08-24T18:38:02.174Z,4.30
2018-08-24T18:40:31.206Z,4.75
2018-08-24T18:43:00.197Z,4.90
2018-08-24T18:45:29.103Z,4.72
2018-08-24T18:47:58.018Z,4.53
2018-08-24T18:50:26.925Z,4.78
2018-08-24T18:52:55.877Z,4.95
2018-08-24T18:55:24.811Z,4.83
2018-08-24T18:57:53.829Z,4.08
2018-08-24T19:00:23.046Z,4.25
2018-08-24T19:02:51.952Z,4.30
2018-08-24T19:05:20.911Z,5.25
2018-08-24T19:07:54.294Z,4.75
2018-08-24T19:10:23.226Z,4.72
2018-08-24T19:12:52.176Z,4.28
2018-08-24T19:15:21.167Z,5.20
2018-08-24T19:17:55.568Z,4.92
2018-08-24T19:20:29.784Z,5.28
2018-08-24T19:22:58.697Z,4.60
2018-08-24T19:25:27.603Z,4.90
2018-08-24T19:28:01.905Z,4.85
2018-08-24T19:30:33.146Z,4.78
2018-08-24T19:33:02.393Z,5.30
2018-08-24T19:35:31.667Z,5.30
2018-08-24T19:38:00.599Z,4.00
2018-08-24T19:40:34.763Z,5.10
2018-08-24T19:43:03.666Z,6.35
2018-08-24T19:45:32.578Z,6.00
2018-08-24T19:48:06.815Z,5.67
2018-08-24T19:50:35.735Z,5.15
2018-08-24T19:53:04.845Z,5.03
2018-08-24T19:55:33.845Z,4.53
2018-08-24T19:58:08.051Z,5.33
2018-08-24T20:00:37.148Z,5.72
2018-08-24T20:03:06.026Z,4.80
2018-08-24T20:05:34.938Z,5.00
2018-08-24T20:08:09.114Z,4.55
2018-08-24T20:10:38.012Z,4.80
2018-08-24T20:13:06.967Z,5.20
2018-08-24T20:15:41.158Z,5.75
2018-08-24T20:18:10.063Z,5.35
2018-08-24T20:20:38.950Z,4.78
2018-08-24T20:23:07.859Z,5.33
2018-08-24T20:25:36.757Z,4.90
2018-08-24T20:28:05.704Z,5.65
2018-08-24T20:30:34.617Z,5.50
2018-08-24T20:33:03.505Z,5.45
2018-08-24T20:35:32.474Z,5.90
2018-08-24T20:38:01.401Z,5.55
2018-08-24T20:40:30.477Z,4.80
2018-08-24T20:42:59.377Z,5.65
2018-08-24T20:45:28.274Z,5.10
2018-08-24T20:47:57.211Z,5.20
2018-08-24T20:50:26.253Z,5.22
2018-08-24T20:52:55.185Z,5.20
2018-08-24T20:55:24.379Z,4.58
2018-08-24T20:57:53.394Z,5.53
2018-08-24T21:00:22.362Z,5.12
2018-08-24T21:02:51.360Z,5.58
2018-08-24T21:05:20.314Z,4.65
2018-08-24T21:07:49.338Z,5.87
2018-08-24T21:10:18.548Z,5.87
2018-08-24T21:12:47.419Z,4.95
2018-08-24T21:15:16.342Z,5.00
2018-08-24T21:17:45.247Z,6.33
2018-08-24T21:20:14.155Z,5.92
2018-08-24T21:22:43.094Z,5.35
2018-08-24T21:25:11.986Z,5.10
2018-08-24T21:27:40.882Z,5.70
2018-08-24T21:30:09.870Z,5.28
2018-08-24T21:32:38.745Z,5.35
2018-08-24T21:35:07.635Z,6.45
2018-08-24T21:37:36.525Z,4.87
2018-08-24T21:40:05.665Z,5.05
2018-08-24T21:42:35.166Z,5.35
2018-08-24T21:45:04.134Z,4.92
2018-08-24T21:47:33.061Z,5.10
2018-08-24T21:50:01.963Z,5.55
2018-08-24T21:52:30.943Z,5.28
2018-08-24T21:54:59.842Z,4.72
2018-08-24T21:57:28.751Z,4.95
2018-08-24T21:59:57.763Z,4.80
2018-08-24T22:02:26.681Z,5.33
2018-08-24T22:04:55.646Z,4.47
2018-08-24T22:07:24.633Z,4.65
2018-08-24T22:09:53.542Z,5.15
2018-08-24T22:12:22.580Z,4.75
2018-08-24T22:14:51.633Z,4.53
2018-08-24T22:17:20.652Z,4.83
2018-08-24T22:19:49.553Z,4.53
2018-08-24T22:22:18.504Z,4.92
2018-08-24T22:24:48.481Z,5.00
2018-08-24T22:27:17.401Z,4.30
2018-08-24T22:29:46.738Z,4.55
2018-08-24T22:32:15.642Z,3.72
2018-08-24T22:34:44.567Z,4.33
2018-08-24T22:37:13.511Z,5.33
2018-08-24T22:39:42.626Z,4.47
2018-08-24T22:42:11.565Z,4.20
2018-08-24T22:44:40.500Z,4.00
2018-08-24T22:47:09.389Z,4.20
2018-08-24T22:49:38.438Z,4.47
2018-08-24T22:52:07.433Z,3.87
2018-08-24T22:54:36.317Z,3.75
2018-08-24T22:57:05.363Z,3.90
2018-08-24T22:59:34.288Z,3.52
2018-08-24T23:02:03.457Z,5.15
2018-08-24T23:04:32.379Z,3.90
2018-08-24T23:07:01.354Z,3.95
2018-08-24T23:09:30.536Z,3.70
2018-08-24T23:12:00.127Z,4.12
2018-08-24T23:14:29.070Z,3.85
2018-08-24T23:16:57.986Z,3.70
2018-08-24T23:19:26.968Z,3.60
2018-08-24T23:21:55.817Z,4.17
2018-08-24T23:24:24.789Z,4.05
2018-08-24T23:26:53.708Z,3.40
2018-08-24T23:29:22.635Z,4.75
2018-08-24T23:31:51.530Z,4.85
2018-08-24T23:34:20.450Z,3.92
2018-08-24T23:36:49.324Z,4.08
2018-08-24T23:39:18.517Z,3.83
2018-08-24T23:41:47.486Z,4.62
2018-08-24T23:44:16.434Z,3.60
2018-08-24T23:46:45.309Z,3.72
2018-08-24T23:49:14.231Z,3.67
2018-08-24T23:51:43.109Z,3.55
2018-08-24T23:54:11.990Z,3.02
2018-08-24T23:56:40.889Z,3.35
2018-08-24T23:59:09.789Z,3.35
